sensor_id;sensor_type;location;lat;lon;timestamp;P1;durP1;ratioP1;P2;durP2;ratioP2
32639;SDS011;19049;52.524;11.468;2023-12-14T00:01:32;5.77;;;3.20;;
32639;SDS011;19049;52.524;11.468;2023-12-14T00:03:58;5.00;;;3.60;;
32639;SDS011;19049;52.524;11.468;2023-12-14T00:06:28;4.67;;;3.40;;
32639;SDS011;19049;52.524;11.468;2023-12-14T00:08:54;4.83;;;3.17;;
32639;SDS011;19049;52.524;11.468;2023-12-14T00:11:20;5.93;;;4.53;;
32639;SDS011;19049;52.524;11.468;2023-12-14T00:13:45;6.83;;;4.67;;
32639;SDS011;19049;52.524;11.468;2023-12-14T00:16:11;5.23;;;4.00;;
32639;SDS011;19049;52.524;11.468;2023-12-14T00:18:36;4.37;;;3.60;;
32639;SDS011;19049;52.524;11.468;2023-12-14T00:21:02;3.77;;;3.23;;
32639;SDS011;19049;52.524;11.468;2023-12-14T00:23:28;5.43;;;4.07;;
32639;SDS011;19049;52.524;11.468;2023-12-14T00:25:54;5.20;;;3.53;;
32639;SDS011;19049;52.524;11.468;2023-12-14T00:28:21;4.37;;;3.50;;
32639;SDS011;19049;52.524;11.468;2023-12-14T00:30:47;5.33;;;4.17;;
32639;SDS011;19049;52.524;11.468;2023-12-14T00:33:13;4.77;;;3.93;;
32639;SDS011;19049;52.524;11.468;2023-12-14T00:35:38;5.70;;;3.87;;
32639;SDS011;19049;52.524;11.468;2023-12-14T00:38:04;4.13;;;3.53;;
32639;SDS011;19049;52.524;11.468;2023-12-14T00:40:29;4.90;;;3.33;;
32639;SDS011;19049;52.524;11.468;2023-12-14T00:42:55;5.10;;;3.83;;
32639;SDS011;19049;52.524;11.468;2023-12-14T00:45:21;6.30;;;4.83;;
32639;SDS011;19049;52.524;11.468;2023-12-14T00:47:46;6.13;;;4.07;;
32639;SDS011;19049;52.524;11.468;2023-12-14T00:50:12;5.47;;;3.67;;
32639;SDS011;19049;52.524;11.468;2023-12-14T00:52:37;5.40;;;3.90;;
32639;SDS011;19049;52.524;11.468;2023-12-14T00:55:03;4.63;;;3.17;;
32639;SDS011;19049;52.524;11.468;2023-12-14T00:57:29;5.20;;;3.87;;
32639;SDS011;19049;52.524;11.468;2023-12-14T00:59:55;5.67;;;3.73;;
32639;SDS011;19049;52.524;11.468;2023-12-14T01:02:20;6.03;;;3.93;;
32639;SDS011;19049;52.524;11.468;2023-12-14T01:04:46;5.23;;;3.73;;
32639;SDS011;19049;52.524;11.468;2023-12-14T01:07:12;7.03;;;5.07;;
32639;SDS011;19049;52.524;11.468;2023-12-14T01:09:38;7.37;;;4.90;;
32639;SDS011;19049;52.524;11.468;2023-12-14T01:12:04;7.00;;;5.23;;
32639;SDS011;19049;52.524;11.468;2023-12-14T01:14:29;6.63;;;5.03;;
32639;SDS011;19049;52.524;11.468;2023-12-14T01:16:55;5.97;;;5.13;;
32639;SDS011;19049;52.524;11.468;2023-12-14T01:19:21;7.73;;;4.97;;
32639;SDS011;19049;52.524;11.468;2023-12-14T01:21:46;6.83;;;4.70;;
32639;SDS011;19049;52.524;11.468;2023-12-14T01:24:12;7.13;;;5.33;;
32639;SDS011;19049;52.524;11.468;2023-12-14T01:26:37;6.77;;;4.90;;
32639;SDS011;19049;52.524;11.468;2023-12-14T01:29:03;6.80;;;4.90;;
32639;SDS011;19049;52.524;11.468;2023-12-14T01:31:29;5.77;;;4.07;;
32639;SDS011;19049;52.524;11.468;2023-12-14T01:33:55;5.03;;;4.07;;
32639;SDS011;19049;52.524;11.468;2023-12-14T01:36:21;5.20;;;3.80;;
32639;SDS011;19049;52.524;11.468;2023-12-14T01:38:47;7.40;;;5.23;;
32639;SDS011;19049;52.524;11.468;2023-12-14T01:41:13;6.30;;;4.60;;
32639;SDS011;19049;52.524;11.468;2023-12-14T01:43:39;7.20;;;5.27;;
32639;SDS011;19049;52.524;11.468;2023-12-14T01:46:04;7.40;;;5.27;;
32639;SDS011;19049;52.524;11.468;2023-12-14T01:48:30;7.87;;;3.80;;
32639;SDS011;19049;52.524;11.468;2023-12-14T01:50:56;6.40;;;4.83;;
32639;SDS011;19049;52.524;11.468;2023-12-14T01:53:21;6.20;;;4.37;;
32639;SDS011;19049;52.524;11.468;2023-12-14T01:55:47;6.67;;;4.27;;
32639;SDS011;19049;52.524;11.468;2023-12-14T01:58:13;5.77;;;4.33;;
32639;SDS011;19049;52.524;11.468;2023-12-14T02:03:28;6.40;;;5.17;;
32639;SDS011;19049;52.524;11.468;2023-12-14T02:05:54;7.43;;;5.37;;
32639;SDS011;19049;52.524;11.468;2023-12-14T02:08:20;7.93;;;5.77;;
32639;SDS011;19049;52.524;11.468;2023-12-14T02:10:46;7.17;;;4.73;;
32639;SDS011;19049;52.524;11.468;2023-12-14T02:13:13;6.83;;;4.73;;
32639;SDS011;19049;52.524;11.468;2023-12-14T02:15:38;6.67;;;4.77;;
32639;SDS011;19049;52.524;11.468;2023-12-14T02:18:04;8.23;;;5.20;;
32639;SDS011;19049;52.524;11.468;2023-12-14T02:20:30;6.97;;;4.90;;
32639;SDS011;19049;52.524;11.468;2023-12-14T02:22:55;7.50;;;4.70;;
32639;SDS011;19049;52.524;11.468;2023-12-14T02:25:22;8.40;;;5.63;;
32639;SDS011;19049;52.524;11.468;2023-12-14T02:27:48;8.13;;;5.93;;
32639;SDS011;19049;52.524;11.468;2023-12-14T02:30:15;8.13;;;5.67;;
32639;SDS011;19049;52.524;11.468;2023-12-14T02:32:41;8.23;;;6.30;;
32639;SDS011;19049;52.524;11.468;2023-12-14T02:35:07;7.30;;;5.40;;
32639;SDS011;19049;52.524;11.468;2023-12-14T02:37:33;6.73;;;4.67;;
32639;SDS011;19049;52.524;11.468;2023-12-14T02:40:02;7.23;;;5.10;;
32639;SDS011;19049;52.524;11.468;2023-12-14T02:42:28;8.63;;;6.60;;
32639;SDS011;19049;52.524;11.468;2023-12-14T02:44:54;8.57;;;6.20;;
32639;SDS011;19049;52.524;11.468;2023-12-14T02:47:20;7.43;;;5.77;;
32639;SDS011;19049;52.524;11.468;2023-12-14T02:49:46;7.33;;;5.40;;
32639;SDS011;19049;52.524;11.468;2023-12-14T02:52:11;7.77;;;5.53;;
32639;SDS011;19049;52.524;11.468;2023-12-14T02:54:38;8.93;;;5.70;;
32639;SDS011;19049;52.524;11.468;2023-12-14T02:57:05;7.23;;;5.17;;
32639;SDS011;19049;52.524;11.468;2023-12-14T02:59:30;7.23;;;4.97;;
32639;SDS011;19049;52.524;11.468;2023-12-14T03:01:56;7.80;;;5.57;;
32639;SDS011;19049;52.524;11.468;2023-12-14T03:04:21;10.10;;;5.97;;
32639;SDS011;19049;52.524;11.468;2023-12-14T03:06:47;9.83;;;6.70;;
32639;SDS011;19049;52.524;11.468;2023-12-14T03:09:13;9.40;;;5.37;;
32639;SDS011;19049;52.524;11.468;2023-12-14T03:11:38;11.20;;;6.30;;
32639;SDS011;19049;52.524;11.468;2023-12-14T03:14:04;10.10;;;6.53;;
32639;SDS011;19049;52.524;11.468;2023-12-14T03:16:29;12.53;;;7.30;;
32639;SDS011;19049;52.524;11.468;2023-12-14T03:18:55;9.83;;;6.60;;
32639;SDS011;19049;52.524;11.468;2023-12-14T03:21:21;9.37;;;6.97;;
32639;SDS011;19049;52.524;11.468;2023-12-14T03:23:48;15.70;;;8.90;;
32639;SDS011;19049;52.524;11.468;2023-12-14T03:26:14;10.33;;;7.17;;
32639;SDS011;19049;52.524;11.468;2023-12-14T03:28:39;11.53;;;7.53;;
32639;SDS011;19049;52.524;11.468;2023-12-14T03:31:05;8.80;;;6.23;;
32639;SDS011;19049;52.524;11.468;2023-12-14T03:33:31;11.80;;;7.97;;
32639;SDS011;19049;52.524;11.468;2023-12-14T03:35:56;9.73;;;6.27;;
32639;SDS011;19049;52.524;11.468;2023-12-14T03:38:22;10.27;;;6.77;;
32639;SDS011;19049;52.524;11.468;2023-12-14T03:40:47;10.97;;;6.50;;
32639;SDS011;19049;52.524;11.468;2023-12-14T03:43:13;13.27;;;8.93;;
32639;SDS011;19049;52.524;11.468;2023-12-14T03:45:39;12.23;;;7.90;;
32639;SDS011;19049;52.524;11.468;2023-12-14T03:48:04;12.00;;;8.10;;
32639;SDS011;19049;52.524;11.468;2023-12-14T03:50:30;13.80;;;8.60;;
32639;SDS011;19049;52.524;11.468;2023-12-14T03:52:57;11.27;;;7.07;;
32639;SDS011;19049;52.524;11.468;2023-12-14T03:55:23;10.73;;;8.03;;
32639;SDS011;19049;52.524;11.468;2023-12-14T03:57:49;9.93;;;6.67;;
32639;SDS011;19049;52.524;11.468;2023-12-14T04:00:14;9.60;;;7.03;;
32639;SDS011;19049;52.524;11.468;2023-12-14T04:02:40;9.60;;;6.80;;
32639;SDS011;19049;52.524;11.468;2023-12-14T04:05:06;10.03;;;6.70;;
32639;SDS011;19049;52.524;11.468;2023-12-14T04:07:35;9.97;;;7.10;;
32639;SDS011;19049;52.524;11.468;2023-12-14T04:10:02;9.47;;;6.30;;
32639;SDS011;19049;52.524;11.468;2023-12-14T04:12:27;9.17;;;6.33;;
32639;SDS011;19049;52.524;11.468;2023-12-14T04:14:53;9.97;;;6.60;;
32639;SDS011;19049;52.524;11.468;2023-12-14T04:17:18;8.70;;;6.53;;
32639;SDS011;19049;52.524;11.468;2023-12-14T04:19:44;11.17;;;6.73;;
32639;SDS011;19049;52.524;11.468;2023-12-14T04:22:10;8.57;;;6.50;;
32639;SDS011;19049;52.524;11.468;2023-12-14T04:24:35;10.37;;;5.87;;
32639;SDS011;19049;52.524;11.468;2023-12-14T04:27:01;10.03;;;6.03;;
32639;SDS011;19049;52.524;11.468;2023-12-14T04:29:26;8.50;;;6.13;;
32639;SDS011;19049;52.524;11.468;2023-12-14T04:31:52;9.97;;;6.07;;
32639;SDS011;19049;52.524;11.468;2023-12-14T04:34:18;11.17;;;7.13;;
32639;SDS011;19049;52.524;11.468;2023-12-14T04:36:47;10.03;;;6.27;;
32639;SDS011;19049;52.524;11.468;2023-12-14T04:39:13;12.60;;;8.00;;
32639;SDS011;19049;52.524;11.468;2023-12-14T04:41:39;10.37;;;6.77;;
32639;SDS011;19049;52.524;11.468;2023-12-14T04:44:05;10.60;;;7.13;;
32639;SDS011;19049;52.524;11.468;2023-12-14T04:46:30;10.33;;;7.60;;
32639;SDS011;19049;52.524;11.468;2023-12-14T04:48:56;11.27;;;7.33;;
32639;SDS011;19049;52.524;11.468;2023-12-14T04:51:21;10.00;;;7.57;;
32639;SDS011;19049;52.524;11.468;2023-12-14T04:53:47;11.77;;;6.60;;
32639;SDS011;19049;52.524;11.468;2023-12-14T04:56:13;10.87;;;6.93;;
32639;SDS011;19049;52.524;11.468;2023-12-14T04:58:39;10.23;;;7.30;;
32639;SDS011;19049;52.524;11.468;2023-12-14T05:01:05;8.77;;;6.23;;
32639;SDS011;19049;52.524;11.468;2023-12-14T05:03:31;11.50;;;7.47;;
32639;SDS011;19049;52.524;11.468;2023-12-14T05:05:58;11.00;;;6.90;;
32639;SDS011;19049;52.524;11.468;2023-12-14T05:08:23;10.10;;;7.13;;
32639;SDS011;19049;52.524;11.468;2023-12-14T05:10:49;13.20;;;8.13;;
32639;SDS011;19049;52.524;11.468;2023-12-14T05:13:15;13.77;;;7.60;;
32639;SDS011;19049;52.524;11.468;2023-12-14T05:15:41;11.17;;;7.37;;
32639;SDS011;19049;52.524;11.468;2023-12-14T05:18:06;8.50;;;6.30;;
32639;SDS011;19049;52.524;11.468;2023-12-14T05:20:32;10.80;;;7.03;;
32639;SDS011;19049;52.524;11.468;2023-12-14T05:22:59;9.60;;;7.03;;
32639;SDS011;19049;52.524;11.468;2023-12-14T05:25:25;9.77;;;6.83;;
32639;SDS011;19049;52.524;11.468;2023-12-14T05:27:50;9.63;;;6.37;;
32639;SDS011;19049;52.524;11.468;2023-12-14T05:30:16;9.37;;;6.70;;
32639;SDS011;19049;52.524;11.468;2023-12-14T05:32:43;8.33;;;5.90;;
32639;SDS011;19049;52.524;11.468;2023-12-14T05:35:09;9.20;;;6.53;;
32639;SDS011;19049;52.524;11.468;2023-12-14T05:37:35;9.70;;;6.63;;
32639;SDS011;19049;52.524;11.468;2023-12-14T05:40:01;11.60;;;7.63;;
32639;SDS011;19049;52.524;11.468;2023-12-14T05:42:27;11.47;;;7.40;;
32639;SDS011;19049;52.524;11.468;2023-12-14T05:44:53;11.40;;;7.40;;
32639;SDS011;19049;52.524;11.468;2023-12-14T05:47:19;11.93;;;7.97;;
32639;SDS011;19049;52.524;11.468;2023-12-14T05:49:45;11.87;;;7.90;;
32639;SDS011;19049;52.524;11.468;2023-12-14T05:52:10;12.73;;;8.27;;
32639;SDS011;19049;52.524;11.468;2023-12-14T05:54:37;10.43;;;7.27;;
32639;SDS011;19049;52.524;11.468;2023-12-14T05:57:03;12.17;;;8.47;;
32639;SDS011;19049;52.524;11.468;2023-12-14T05:59:29;11.03;;;7.60;;
32639;SDS011;19049;52.524;11.468;2023-12-14T06:02:00;12.43;;;8.57;;
32639;SDS011;19049;52.524;11.468;2023-12-14T06:04:26;13.13;;;7.93;;
32639;SDS011;19049;52.524;11.468;2023-12-14T06:06:52;14.17;;;8.37;;
32639;SDS011;19049;52.524;11.468;2023-12-14T06:09:18;12.13;;;8.13;;
32639;SDS011;19049;52.524;11.468;2023-12-14T06:11:47;10.70;;;7.53;;
32639;SDS011;19049;52.524;11.468;2023-12-14T06:14:13;14.10;;;8.97;;
32639;SDS011;19049;52.524;11.468;2023-12-14T06:16:38;19.87;;;11.60;;
32639;SDS011;19049;52.524;11.468;2023-12-14T06:19:04;14.53;;;9.53;;
32639;SDS011;19049;52.524;11.468;2023-12-14T06:21:30;15.40;;;9.53;;
32639;SDS011;19049;52.524;11.468;2023-12-14T06:23:56;16.40;;;10.87;;
32639;SDS011;19049;52.524;11.468;2023-12-14T06:26:25;18.50;;;10.43;;
32639;SDS011;19049;52.524;11.468;2023-12-14T06:28:50;12.97;;;8.90;;
32639;SDS011;19049;52.524;11.468;2023-12-14T06:31:17;17.67;;;10.87;;
32639;SDS011;19049;52.524;11.468;2023-12-14T06:33:46;15.73;;;10.53;;
32639;SDS011;19049;52.524;11.468;2023-12-14T06:36:12;15.90;;;10.70;;
32639;SDS011;19049;52.524;11.468;2023-12-14T06:38:38;15.27;;;10.30;;
32639;SDS011;19049;52.524;11.468;2023-12-14T06:41:04;17.77;;;11.47;;
32639;SDS011;19049;52.524;11.468;2023-12-14T06:43:30;18.00;;;11.07;;
32639;SDS011;19049;52.524;11.468;2023-12-14T06:45:55;19.63;;;11.83;;
32639;SDS011;19049;52.524;11.468;2023-12-14T06:48:21;14.60;;;9.80;;
32639;SDS011;19049;52.524;11.468;2023-12-14T06:50:47;17.37;;;9.77;;
32639;SDS011;19049;52.524;11.468;2023-12-14T06:53:12;18.80;;;11.33;;
32639;SDS011;19049;52.524;11.468;2023-12-14T06:55:40;16.33;;;11.33;;
32639;SDS011;19049;52.524;11.468;2023-12-14T06:58:06;15.10;;;10.13;;
32639;SDS011;19049;52.524;11.468;2023-12-14T07:00:36;15.57;;;10.10;;
32639;SDS011;19049;52.524;11.468;2023-12-14T07:03:02;18.00;;;10.57;;
32639;SDS011;19049;52.524;11.468;2023-12-14T07:05:28;13.67;;;9.87;;
32639;SDS011;19049;52.524;11.468;2023-12-14T07:07:54;16.37;;;10.93;;
32639;SDS011;19049;52.524;11.468;2023-12-14T07:10:21;14.93;;;10.30;;
32639;SDS011;19049;52.524;11.468;2023-12-14T07:12:47;15.23;;;10.27;;
32639;SDS011;19049;52.524;11.468;2023-12-14T07:15:13;14.27;;;10.07;;
32639;SDS011;19049;52.524;11.468;2023-12-14T07:17:38;14.20;;;9.73;;
32639;SDS011;19049;52.524;11.468;2023-12-14T07:20:05;12.80;;;9.03;;
32639;SDS011;19049;52.524;11.468;2023-12-14T07:22:31;13.20;;;9.23;;
32639;SDS011;19049;52.524;11.468;2023-12-14T07:24:57;11.67;;;8.30;;
32639;SDS011;19049;52.524;11.468;2023-12-14T07:27:22;13.73;;;9.50;;
32639;SDS011;19049;52.524;11.468;2023-12-14T07:29:48;13.37;;;8.77;;
32639;SDS011;19049;52.524;11.468;2023-12-14T07:32:14;11.93;;;8.33;;
32639;SDS011;19049;52.524;11.468;2023-12-14T07:34:40;15.77;;;10.20;;
32639;SDS011;19049;52.524;11.468;2023-12-14T07:37:06;16.07;;;10.80;;
32639;SDS011;19049;52.524;11.468;2023-12-14T07:39:31;16.07;;;11.03;;
32639;SDS011;19049;52.524;11.468;2023-12-14T07:41:57;15.13;;;10.20;;
32639;SDS011;19049;52.524;11.468;2023-12-14T07:44:23;14.20;;;9.47;;
32639;SDS011;19049;52.524;11.468;2023-12-14T07:46:50;16.73;;;10.00;;
32639;SDS011;19049;52.524;11.468;2023-12-14T07:49:16;16.90;;;12.03;;
32639;SDS011;19049;52.524;11.468;2023-12-14T07:51:45;14.73;;;10.50;;
32639;SDS011;19049;52.524;11.468;2023-12-14T07:54:11;14.77;;;10.63;;
32639;SDS011;19049;52.524;11.468;2023-12-14T07:56:37;14.93;;;10.13;;
32639;SDS011;19049;52.524;11.468;2023-12-14T07:59:03;13.37;;;8.60;;
32639;SDS011;19049;52.524;11.468;2023-12-14T08:01:31;11.47;;;8.83;;
32639;SDS011;19049;52.524;11.468;2023-12-14T08:03:57;14.20;;;9.80;;
32639;SDS011;19049;52.524;11.468;2023-12-14T08:06:23;15.03;;;9.50;;
32639;SDS011;19049;52.524;11.468;2023-12-14T08:08:48;13.63;;;9.60;;
32639;SDS011;19049;52.524;11.468;2023-12-14T08:11:14;13.03;;;9.03;;
32639;SDS011;19049;52.524;11.468;2023-12-14T08:13:40;14.83;;;10.77;;
32639;SDS011;19049;52.524;11.468;2023-12-14T08:16:05;15.77;;;11.50;;
32639;SDS011;19049;52.524;11.468;2023-12-14T08:18:32;14.53;;;10.27;;
32639;SDS011;19049;52.524;11.468;2023-12-14T08:20:58;14.13;;;11.10;;
32639;SDS011;19049;52.524;11.468;2023-12-14T08:23:24;13.03;;;9.97;;
32639;SDS011;19049;52.524;11.468;2023-12-14T08:25:52;15.93;;;10.40;;
32639;SDS011;19049;52.524;11.468;2023-12-14T08:28:23;15.93;;;10.43;;
32639;SDS011;19049;52.524;11.468;2023-12-14T08:30:50;11.47;;;8.30;;
32639;SDS011;19049;52.524;11.468;2023-12-14T08:33:18;12.70;;;8.50;;
32639;SDS011;19049;52.524;11.468;2023-12-14T08:35:44;14.67;;;9.50;;
32639;SDS011;19049;52.524;11.468;2023-12-14T08:38:10;13.47;;;8.73;;
32639;SDS011;19049;52.524;11.468;2023-12-14T08:40:36;11.80;;;8.43;;
32639;SDS011;19049;52.524;11.468;2023-12-14T08:43:02;12.43;;;7.97;;
32639;SDS011;19049;52.524;11.468;2023-12-14T08:45:28;11.03;;;8.17;;
32639;SDS011;19049;52.524;11.468;2023-12-14T08:47:54;15.03;;;10.47;;
32639;SDS011;19049;52.524;11.468;2023-12-14T08:50:19;15.30;;;9.60;;
32639;SDS011;19049;52.524;11.468;2023-12-14T08:52:46;14.03;;;9.27;;
32639;SDS011;19049;52.524;11.468;2023-12-14T08:55:12;18.33;;;10.63;;
32639;SDS011;19049;52.524;11.468;2023-12-14T08:57:38;13.23;;;9.13;;
32639;SDS011;19049;52.524;11.468;2023-12-14T09:00:04;14.53;;;9.77;;
32639;SDS011;19049;52.524;11.468;2023-12-14T09:02:31;15.70;;;10.50;;
32639;SDS011;19049;52.524;11.468;2023-12-14T09:04:57;15.33;;;9.20;;
32639;SDS011;19049;52.524;11.468;2023-12-14T09:07:23;18.60;;;11.30;;
32639;SDS011;19049;52.524;11.468;2023-12-14T09:09:49;15.03;;;9.43;;
32639;SDS011;19049;52.524;11.468;2023-12-14T09:12:14;14.03;;;10.03;;
32639;SDS011;19049;52.524;11.468;2023-12-14T09:14:40;16.10;;;9.93;;
32639;SDS011;19049;52.524;11.468;2023-12-14T09:17:06;16.60;;;10.10;;
32639;SDS011;19049;52.524;11.468;2023-12-14T09:19:31;16.10;;;10.67;;
32639;SDS011;19049;52.524;11.468;2023-12-14T09:21:57;14.77;;;10.33;;
32639;SDS011;19049;52.524;11.468;2023-12-14T09:24:23;14.27;;;10.10;;
32639;SDS011;19049;52.524;11.468;2023-12-14T09:26:49;14.63;;;9.87;;
32639;SDS011;19049;52.524;11.468;2023-12-14T09:29:14;17.37;;;11.53;;
32639;SDS011;19049;52.524;11.468;2023-12-14T09:31:41;17.87;;;10.20;;
32639;SDS011;19049;52.524;11.468;2023-12-14T09:34:08;18.47;;;10.33;;
32639;SDS011;19049;52.524;11.468;2023-12-14T09:36:34;17.23;;;10.30;;
32639;SDS011;19049;52.524;11.468;2023-12-14T09:39:00;14.13;;;8.97;;
32639;SDS011;19049;52.524;11.468;2023-12-14T09:41:26;13.03;;;9.07;;
32639;SDS011;19049;52.524;11.468;2023-12-14T09:43:52;14.13;;;9.47;;
32639;SDS011;19049;52.524;11.468;2023-12-14T09:46:18;17.47;;;10.47;;
32639;SDS011;19049;52.524;11.468;2023-12-14T09:48:45;14.37;;;9.37;;
32639;SDS011;19049;52.524;11.468;2023-12-14T09:51:12;14.07;;;9.57;;
32639;SDS011;19049;52.524;11.468;2023-12-14T09:53:38;14.93;;;9.30;;
32639;SDS011;19049;52.524;11.468;2023-12-14T09:56:03;13.43;;;9.13;;
32639;SDS011;19049;52.524;11.468;2023-12-14T09:58:33;12.80;;;8.63;;
32639;SDS011;19049;52.524;11.468;2023-12-14T10:00:59;12.67;;;7.83;;
32639;SDS011;19049;52.524;11.468;2023-12-14T10:03:26;15.60;;;9.47;;
32639;SDS011;19049;52.524;11.468;2023-12-14T10:05:55;12.73;;;8.87;;
32639;SDS011;19049;52.524;11.468;2023-12-14T10:08:22;12.83;;;8.27;;
32639;SDS011;19049;52.524;11.468;2023-12-14T10:10:48;11.37;;;7.87;;
32639;SDS011;19049;52.524;11.468;2023-12-14T10:13:16;13.77;;;9.17;;
32639;SDS011;19049;52.524;11.468;2023-12-14T10:15:46;13.07;;;7.90;;
32639;SDS011;19049;52.524;11.468;2023-12-14T10:18:22;12.97;;;9.10;;
32639;SDS011;19049;52.524;11.468;2023-12-14T10:20:49;14.83;;;9.13;;
32639;SDS011;19049;52.524;11.468;2023-12-14T10:23:15;16.80;;;9.93;;
32639;SDS011;19049;52.524;11.468;2023-12-14T10:25:41;12.67;;;9.13;;
32639;SDS011;19049;52.524;11.468;2023-12-14T10:28:07;14.83;;;9.23;;
32639;SDS011;19049;52.524;11.468;2023-12-14T10:30:34;13.90;;;9.07;;
32639;SDS011;19049;52.524;11.468;2023-12-14T10:33:00;12.57;;;7.87;;
32639;SDS011;19049;52.524;11.468;2023-12-14T10:35:25;12.67;;;8.33;;
32639;SDS011;19049;52.524;11.468;2023-12-14T10:37:52;11.90;;;8.30;;
32639;SDS011;19049;52.524;11.468;2023-12-14T10:40:19;12.27;;;8.33;;
32639;SDS011;19049;52.524;11.468;2023-12-14T10:42:45;12.30;;;8.17;;
32639;SDS011;19049;52.524;11.468;2023-12-14T10:45:12;12.67;;;8.40;;
32639;SDS011;19049;52.524;11.468;2023-12-14T10:47:44;12.10;;;8.13;;
32639;SDS011;19049;52.524;11.468;2023-12-14T10:50:11;13.97;;;9.27;;
32639;SDS011;19049;52.524;11.468;2023-12-14T10:52:40;13.03;;;9.33;;
32639;SDS011;19049;52.524;11.468;2023-12-14T10:55:07;12.40;;;8.87;;
32639;SDS011;19049;52.524;11.468;2023-12-14T10:57:39;14.90;;;9.80;;
32639;SDS011;19049;52.524;11.468;2023-12-14T11:00:05;18.60;;;13.57;;
32639;SDS011;19049;52.524;11.468;2023-12-14T11:02:40;15.63;;;10.63;;
32639;SDS011;19049;52.524;11.468;2023-12-14T11:05:11;15.13;;;11.43;;
32639;SDS011;19049;52.524;11.468;2023-12-14T11:07:44;18.60;;;12.80;;
32639;SDS011;19049;52.524;11.468;2023-12-14T11:10:20;19.63;;;13.20;;
32639;SDS011;19049;52.524;11.468;2023-12-14T11:12:52;17.60;;;12.30;;
32639;SDS011;19049;52.524;11.468;2023-12-14T11:15:22;17.63;;;12.17;;
32639;SDS011;19049;52.524;11.468;2023-12-14T11:20:54;19.33;;;14.17;;
32639;SDS011;19049;52.524;11.468;2023-12-14T11:26:03;19.23;;;12.23;;
32639;SDS011;19049;52.524;11.468;2023-12-14T11:28:36;15.23;;;9.60;;
32639;SDS011;19049;52.524;11.468;2023-12-14T11:31:11;16.20;;;11.27;;
32639;SDS011;19049;52.524;11.468;2023-12-14T11:33:37;17.40;;;11.67;;
32639;SDS011;19049;52.524;11.468;2023-12-14T11:36:03;15.37;;;10.80;;
32639;SDS011;19049;52.524;11.468;2023-12-14T11:38:30;14.30;;;9.40;;
32639;SDS011;19049;52.524;11.468;2023-12-14T11:40:56;15.10;;;9.80;;
32639;SDS011;19049;52.524;11.468;2023-12-14T11:43:23;17.17;;;12.83;;
32639;SDS011;19049;52.524;11.468;2023-12-14T11:45:51;31.10;;;25.77;;
32639;SDS011;19049;52.524;11.468;2023-12-14T11:48:17;20.83;;;17.80;;
32639;SDS011;19049;52.524;11.468;2023-12-14T11:50:45;16.97;;;12.80;;
32639;SDS011;19049;52.524;11.468;2023-12-14T11:53:11;15.43;;;11.53;;
32639;SDS011;19049;52.524;11.468;2023-12-14T11:55:37;14.17;;;9.97;;
32639;SDS011;19049;52.524;11.468;2023-12-14T11:58:07;15.37;;;12.13;;
32639;SDS011;19049;52.524;11.468;2023-12-14T12:00:33;16.33;;;10.53;;
32639;SDS011;19049;52.524;11.468;2023-12-14T12:05:39;16.13;;;10.20;;
32639;SDS011;19049;52.524;11.468;2023-12-14T12:08:05;12.93;;;8.60;;
32639;SDS011;19049;52.524;11.468;2023-12-14T12:10:31;12.50;;;8.70;;
32639;SDS011;19049;52.524;11.468;2023-12-14T12:12:58;14.37;;;9.20;;
32639;SDS011;19049;52.524;11.468;2023-12-14T12:15:29;13.27;;;8.37;;
32639;SDS011;19049;52.524;11.468;2023-12-14T12:17:57;9.60;;;7.73;;
32639;SDS011;19049;52.524;11.468;2023-12-14T12:20:23;13.83;;;10.90;;
32639;SDS011;19049;52.524;11.468;2023-12-14T12:22:50;13.93;;;9.70;;
32639;SDS011;19049;52.524;11.468;2023-12-14T12:25:16;10.30;;;7.20;;
32639;SDS011;19049;52.524;11.468;2023-12-14T12:27:41;11.17;;;8.63;;
32639;SDS011;19049;52.524;11.468;2023-12-14T12:30:08;11.17;;;7.60;;
32639;SDS011;19049;52.524;11.468;2023-12-14T12:32:35;10.60;;;8.13;;
32639;SDS011;19049;52.524;11.468;2023-12-14T12:35:00;12.67;;;8.57;;
32639;SDS011;19049;52.524;11.468;2023-12-14T12:37:26;11.63;;;8.30;;
32639;SDS011;19049;52.524;11.468;2023-12-14T12:39:51;11.10;;;8.17;;
32639;SDS011;19049;52.524;11.468;2023-12-14T12:42:17;16.37;;;9.00;;
32639;SDS011;19049;52.524;11.468;2023-12-14T12:44:43;11.73;;;8.60;;
32639;SDS011;19049;52.524;11.468;2023-12-14T12:47:09;11.93;;;7.60;;
32639;SDS011;19049;52.524;11.468;2023-12-14T12:49:34;13.20;;;8.60;;
32639;SDS011;19049;52.524;11.468;2023-12-14T12:52:00;10.97;;;7.40;;
32639;SDS011;19049;52.524;11.468;2023-12-14T12:54:25;10.43;;;7.63;;
32639;SDS011;19049;52.524;11.468;2023-12-14T12:56:51;8.87;;;6.57;;
32639;SDS011;19049;52.524;11.468;2023-12-14T12:59:17;12.37;;;7.67;;
32639;SDS011;19049;52.524;11.468;2023-12-14T13:01:43;12.97;;;8.00;;
32639;SDS011;19049;52.524;11.468;2023-12-14T13:04:20;15.03;;;10.97;;
32639;SDS011;19049;52.524;11.468;2023-12-14T13:06:49;21.17;;;15.97;;
32639;SDS011;19049;52.524;11.468;2023-12-14T13:09:16;16.87;;;12.63;;
32639;SDS011;19049;52.524;11.468;2023-12-14T13:11:45;24.10;;;15.60;;
32639;SDS011;19049;52.524;11.468;2023-12-14T13:14:10;13.33;;;10.67;;
32639;SDS011;19049;52.524;11.468;2023-12-14T13:16:37;16.50;;;10.63;;
32639;SDS011;19049;52.524;11.468;2023-12-14T13:19:04;22.13;;;14.80;;
32639;SDS011;19049;52.524;11.468;2023-12-14T13:21:31;15.10;;;10.67;;
32639;SDS011;19049;52.524;11.468;2023-12-14T13:24:00;13.93;;;9.87;;
32639;SDS011;19049;52.524;11.468;2023-12-14T13:26:26;13.33;;;8.43;;
32639;SDS011;19049;52.524;11.468;2023-12-14T13:28:52;22.70;;;16.80;;
32639;SDS011;19049;52.524;11.468;2023-12-14T13:31:18;14.40;;;10.60;;
32639;SDS011;19049;52.524;11.468;2023-12-14T13:33:43;14.80;;;9.67;;
32639;SDS011;19049;52.524;11.468;2023-12-14T13:36:11;15.07;;;11.30;;
32639;SDS011;19049;52.524;11.468;2023-12-14T13:38:37;16.00;;;12.03;;
32639;SDS011;19049;52.524;11.468;2023-12-14T13:41:02;15.77;;;11.50;;
32639;SDS011;19049;52.524;11.468;2023-12-14T13:43:28;14.17;;;10.47;;
32639;SDS011;19049;52.524;11.468;2023-12-14T13:45:55;13.77;;;8.97;;
32639;SDS011;19049;52.524;11.468;2023-12-14T13:48:26;12.07;;;8.00;;
32639;SDS011;19049;52.524;11.468;2023-12-14T13:50:53;13.43;;;9.77;;
32639;SDS011;19049;52.524;11.468;2023-12-14T13:53:19;14.80;;;9.40;;
32639;SDS011;19049;52.524;11.468;2023-12-14T13:55:45;14.30;;;10.00;;
32639;SDS011;19049;52.524;11.468;2023-12-14T13:58:11;25.90;;;16.77;;
32639;SDS011;19049;52.524;11.468;2023-12-14T14:00:37;36.77;;;23.43;;
32639;SDS011;19049;52.524;11.468;2023-12-14T14:03:04;29.20;;;20.10;;
32639;SDS011;19049;52.524;11.468;2023-12-14T14:05:33;24.07;;;16.90;;
32639;SDS011;19049;52.524;11.468;2023-12-14T14:07:59;16.30;;;11.70;;
32639;SDS011;19049;52.524;11.468;2023-12-14T14:10:25;16.27;;;10.63;;
32639;SDS011;19049;52.524;11.468;2023-12-14T14:12:50;13.23;;;8.90;;
32639;SDS011;19049;52.524;11.468;2023-12-14T14:15:16;13.97;;;8.93;;
32639;SDS011;19049;52.524;11.468;2023-12-14T14:17:42;14.67;;;10.20;;
32639;SDS011;19049;52.524;11.468;2023-12-14T14:20:08;17.17;;;11.87;;
32639;SDS011;19049;52.524;11.468;2023-12-14T14:22:35;14.20;;;9.27;;
32639;SDS011;19049;52.524;11.468;2023-12-14T14:25:02;16.10;;;11.07;;
32639;SDS011;19049;52.524;11.468;2023-12-14T14:27:31;16.93;;;10.27;;